sensor_id;sensor_type;location;lat;lon;timestamp;temperature;humidity
32097;DHT22;18610;49.916;8.284;2022-11-20T00:00:18;4.20;99.90
32097;DHT22;18610;49.916;8.284;2022-11-20T00:02:45;4.20;99.90
32097;DHT22;18610;49.916;8.284;2022-11-20T00:05:12;4.20;99.90
32097;DHT22;18610;49.916;8.284;2022-11-20T00:07:40;4.30;99.90
32097;DHT22;18610;49.916;8.284;2022-11-20T00:10:08;4.20;99.90
32097;DHT22;18610;49.916;8.284;2022-11-20T00:12:35;4.10;99.90
32097;DHT22;18610;49.916;8.284;2022-11-20T00:15:02;4.10;99.90
32097;DHT22;18610;49.916;8.284;2022-11-20T00:17:29;4.10;99.90
32097;DHT22;18610;49.916;8.284;2022-11-20T00:19:56;4.00;99.90
32097;DHT22;18610;49.916;8.284;2022-11-20T00:22:23;4.00;99.90
32097;DHT22;18610;49.916;8.284;2022-11-20T00:24:51;4.00;99.90
32097;DHT22;18610;49.916;8.284;2022-11-20T00:27:18;4.00;99.90
32097;DHT22;18610;49.916;8.284;2022-11-20T00:29:45;3.90;99.90
32097;DHT22;18610;49.916;8.284;2022-11-20T00:32:12;3.90;99.90
32097;DHT22;18610;49.916;8.284;2022-11-20T00:34:38;3.90;99.90
32097;DHT22;18610;49.916;8.284;2022-11-20T00:37:05;3.90;99.90
32097;DHT22;18610;49.916;8.284;2022-11-20T00:39:32;3.90;99.90
32097;DHT22;18610;49.916;8.284;2022-11-20T00:42:01;3.90;99.90
32097;DHT22;18610;49.916;8.284;2022-11-20T00:44:27;3.90;99.90
32097;DHT22;18610;49.916;8.284;2022-11-20T00:46:54;3.90;99.90
32097;DHT22;18610;49.916;8.284;2022-11-20T00:49:21;3.90;99.90
32097;DHT22;18610;49.916;8.284;2022-11-20T00:51:48;3.90;99.90
32097;DHT22;18610;49.916;8.284;2022-11-20T00:54:15;3.90;99.90
32097;DHT22;18610;49.916;8.284;2022-11-20T00:56:42;3.90;99.90
32097;DHT22;18610;49.916;8.284;2022-11-20T00:59:10;3.90;99.90
32097;DHT22;18610;49.916;8.284;2022-11-20T01:01:37;4.00;99.90
32097;DHT22;18610;49.916;8.284;2022-11-20T01:04:04;4.10;99.90
32097;DHT22;18610;49.916;8.284;2022-11-20T01:06:32;4.10;99.90
32097;DHT22;18610;49.916;8.284;2022-11-20T01:09:02;4.00;99.90
32097;DHT22;18610;49.916;8.284;2022-11-20T01:11:31;4.00;99.90
32097;DHT22;18610;49.916;8.284;2022-11-20T01:13:59;4.00;99.90
32097;DHT22;18610;49.916;8.284;2022-11-20T01:16:29;4.00;99.90
32097;DHT22;18610;49.916;8.284;2022-11-20T01:18:58;4.00;99.90
32097;DHT22;18610;49.916;8.284;2022-11-20T01:21:27;4.00;99.90
32097;DHT22;18610;49.916;8.284;2022-11-20T01:23:54;4.00;99.90
32097;DHT22;18610;49.916;8.284;2022-11-20T01:26:23;4.00;99.90
32097;DHT22;18610;49.916;8.284;2022-11-20T01:28:50;4.00;99.90
32097;DHT22;18610;49.916;8.284;2022-11-20T01:31:19;4.10;99.90
32097;DHT22;18610;49.916;8.284;2022-11-20T01:33:49;4.10;99.90
32097;DHT22;18610;49.916;8.284;2022-11-20T01:36:17;4.10;99.90
32097;DHT22;18610;49.916;8.284;2022-11-20T01:38:44;4.10;99.90
32097;DHT22;18610;49.916;8.284;2022-11-20T01:41:13;4.10;99.90
32097;DHT22;18610;49.916;8.284;2022-11-20T01:44:02;4.10;99.90
32097;DHT22;18610;49.916;8.284;2022-11-20T01:46:28;4.20;99.90
32097;DHT22;18610;49.916;8.284;2022-11-20T01:48:59;4.20;99.90
32097;DHT22;18610;49.916;8.284;2022-11-20T01:51:33;4.20;99.90
32097;DHT22;18610;49.916;8.284;2022-11-20T01:54:02;4.20;99.90
32097;DHT22;18610;49.916;8.284;2022-11-20T01:56:32;4.20;99.90
32097;DHT22;18610;49.916;8.284;2022-11-20T01:59:02;4.20;99.90
32097;DHT22;18610;49.916;8.284;2022-11-20T02:01:30;4.10;99.90
32097;DHT22;18610;49.916;8.284;2022-11-20T02:03:59;4.10;99.90
32097;DHT22;18610;49.916;8.284;2022-11-20T02:06:28;4.10;99.90
32097;DHT22;18610;49.916;8.284;2022-11-20T02:08:56;4.10;99.90
32097;DHT22;18610;49.916;8.284;2022-11-20T02:11:23;4.20;99.90
32097;DHT22;18610;49.916;8.284;2022-11-20T02:13:50;4.20;99.90
32097;DHT22;18610;49.916;8.284;2022-11-20T02:16:20;4.20;99.90
32097;DHT22;18610;49.916;8.284;2022-11-20T02:18:47;4.20;99.90
32097;DHT22;18610;49.916;8.284;2022-11-20T02:21:25;4.20;99.90
32097;DHT22;18610;49.916;8.284;2022-11-20T02:24:09;4.10;99.90
32097;DHT22;18610;49.916;8.284;2022-11-20T02:26:44;4.20;99.90
32097;DHT22;18610;49.916;8.284;2022-11-20T02:29:14;4.20;99.90
32097;DHT22;18610;49.916;8.284;2022-11-20T02:31:43;4.20;99.90
32097;DHT22;18610;49.916;8.284;2022-11-20T02:34:10;4.10;99.90
32097;DHT22;18610;49.916;8.284;2022-11-20T02:36:39;4.10;99.90
32097;DHT22;18610;49.916;8.284;2022-11-20T02:39:10;4.00;99.90
32097;DHT22;18610;49.916;8.284;2022-11-20T02:41:38;4.00;99.90
32097;DHT22;18610;49.916;8.284;2022-11-20T02:44:05;4.00;99.90
32097;DHT22;18610;49.916;8.284;2022-11-20T02:46:33;4.00;99.90
32097;DHT22;18610;49.916;8.284;2022-11-20T02:49:01;4.00;99.90
32097;DHT22;18610;49.916;8.284;2022-11-20T02:51:28;4.00;99.90
32097;DHT22;18610;49.916;8.284;2022-11-20T02:53:55;4.00;99.90
32097;DHT22;18610;49.916;8.284;2022-11-20T02:56:23;4.00;99.90
32097;DHT22;18610;49.916;8.284;2022-11-20T02:58:51;4.00;99.90
32097;DHT22;18610;49.916;8.284;2022-11-20T03:01:18;4.00;99.90
32097;DHT22;18610;49.916;8.284;2022-11-20T03:03:45;4.00;99.90
32097;DHT22;18610;49.916;8.284;2022-11-20T03:06:14;4.10;99.90
32097;DHT22;18610;49.916;8.284;2022-11-20T03:08:41;4.10;99.90
32097;DHT22;18610;49.916;8.284;2022-11-20T03:11:08;4.10;99.90
32097;DHT22;18610;49.916;8.284;2022-11-20T03:13:37;4.10;99.90
32097;DHT22;18610;49.916;8.284;2022-11-20T03:16:09;4.10;99.90
32097;DHT22;18610;49.916;8.284;2022-11-20T03:18:37;4.10;99.90
32097;DHT22;18610;49.916;8.284;2022-11-20T03:21:04;4.10;99.90
32097;DHT22;18610;49.916;8.284;2022-11-20T03:23:33;4.10;99.90
32097;DHT22;18610;49.916;8.284;2022-11-20T03:26:12;4.10;99.90
32097;DHT22;18610;49.916;8.284;2022-11-20T03:28:40;4.10;99.90
32097;DHT22;18610;49.916;8.284;2022-11-20T03:31:09;4.10;99.90
32097;DHT22;18610;49.916;8.284;2022-11-20T03:33:36;4.10;99.90
32097;DHT22;18610;49.916;8.284;2022-11-20T03:36:04;4.20;99.90
32097;DHT22;18610;49.916;8.284;2022-11-20T03:38:32;4.20;99.90
32097;DHT22;18610;49.916;8.284;2022-11-20T03:41:01;4.20;99.90
32097;DHT22;18610;49.916;8.284;2022-11-20T03:43:28;4.20;99.90
32097;DHT22;18610;49.916;8.284;2022-11-20T03:45:57;4.20;99.90
32097;DHT22;18610;49.916;8.284;2022-11-20T03:48:24;4.20;99.90
32097;DHT22;18610;49.916;8.284;2022-11-20T03:50:52;4.20;99.90
32097;DHT22;18610;49.916;8.284;2022-11-20T03:53:19;4.10;99.90
32097;DHT22;18610;49.916;8.284;2022-11-20T03:55:50;4.00;99.90
32097;DHT22;18610;49.916;8.284;2022-11-20T03:58:17;4.10;99.90
32097;DHT22;18610;49.916;8.284;2022-11-20T04:00:44;4.10;99.90
32097;DHT22;18610;49.916;8.284;2022-11-20T04:03:12;4.10;99.90
32097;DHT22;18610;49.916;8.284;2022-11-20T04:05:38;4.10;99.90
32097;DHT22;18610;49.916;8.284;2022-11-20T04:08:05;4.10;99.90
32097;DHT22;18610;49.916;8.284;2022-11-20T04:10:32;4.10;99.90
32097;DHT22;18610;49.916;8.284;2022-11-20T04:12:59;4.10;99.90
32097;DHT22;18610;49.916;8.284;2022-11-20T04:15:26;4.20;99.90
32097;DHT22;18610;49.916;8.284;2022-11-20T04:17:54;4.20;99.90
32097;DHT22;18610;49.916;8.284;2022-11-20T04:20:22;4.20;99.90
32097;DHT22;18610;49.916;8.284;2022-11-20T04:22:49;4.10;99.90
32097;DHT22;18610;49.916;8.284;2022-11-20T04:25:19;4.20;99.90
32097;DHT22;18610;49.916;8.284;2022-11-20T04:27:46;4.10;99.90
32097;DHT22;18610;49.916;8.284;2022-11-20T04:30:13;4.10;99.90
32097;DHT22;18610;49.916;8.284;2022-11-20T04:32:40;4.10;99.90
32097;DHT22;18610;49.916;8.284;2022-11-20T04:35:07;4.10;99.90
32097;DHT22;18610;49.916;8.284;2022-11-20T04:37:35;4.10;99.90
32097;DHT22;18610;49.916;8.284;2022-11-20T04:40:02;4.10;99.90
32097;DHT22;18610;49.916;8.284;2022-11-20T04:42:29;4.10;99.90
32097;DHT22;18610;49.916;8.284;2022-11-20T04:44:56;4.10;99.90
32097;DHT22;18610;49.916;8.284;2022-11-20T04:47:23;4.00;99.90
32097;DHT22;18610;49.916;8.284;2022-11-20T04:49:50;4.10;99.90
32097;DHT22;18610;49.916;8.284;2022-11-20T04:52:17;4.10;99.90
32097;DHT22;18610;49.916;8.284;2022-11-20T04:54:45;4.10;99.90
32097;DHT22;18610;49.916;8.284;2022-11-20T04:57:13;4.20;99.90
32097;DHT22;18610;49.916;8.284;2022-11-20T04:59:41;4.10;99.90
32097;DHT22;18610;49.916;8.284;2022-11-20T05:02:08;4.10;99.90
32097;DHT22;18610;49.916;8.284;2022-11-20T05:04:35;4.10;99.90
32097;DHT22;18610;49.916;8.284;2022-11-20T05:07:02;4.00;99.90
32097;DHT22;18610;49.916;8.284;2022-11-20T05:09:29;4.00;99.90
32097;DHT22;18610;49.916;8.284;2022-11-20T05:11:57;4.00;99.90
32097;DHT22;18610;49.916;8.284;2022-11-20T05:14:24;4.00;99.90
32097;DHT22;18610;49.916;8.284;2022-11-20T05:16:51;4.00;99.90
32097;DHT22;18610;49.916;8.284;2022-11-20T05:19:18;4.10;99.90
32097;DHT22;18610;49.916;8.284;2022-11-20T05:21:45;4.10;99.90
32097;DHT22;18610;49.916;8.284;2022-11-20T05:24:11;4.10;99.90
32097;DHT22;18610;49.916;8.284;2022-11-20T05:26:38;4.20;99.90
32097;DHT22;18610;49.916;8.284;2022-11-20T05:29:06;4.20;99.90
32097;DHT22;18610;49.916;8.284;2022-11-20T05:31:33;4.20;99.90
32097;DHT22;18610;49.916;8.284;2022-11-20T05:34:01;4.20;99.90
32097;DHT22;18610;49.916;8.284;2022-11-20T05:36:28;4.20;99.90
32097;DHT22;18610;49.916;8.284;2022-11-20T05:38:56;4.10;99.90
32097;DHT22;18610;49.916;8.284;2022-11-20T05:41:23;4.10;99.90
32097;DHT22;18610;49.916;8.284;2022-11-20T05:43:51;4.10;99.90
32097;DHT22;18610;49.916;8.284;2022-11-20T05:46:20;4.10;99.90
32097;DHT22;18610;49.916;8.284;2022-11-20T05:48:47;4.10;99.90
32097;DHT22;18610;49.916;8.284;2022-11-20T05:51:16;4.20;99.90
32097;DHT22;18610;49.916;8.284;2022-11-20T05:53:44;4.20;99.90
32097;DHT22;18610;49.916;8.284;2022-11-20T05:56:13;4.20;99.90
32097;DHT22;18610;49.916;8.284;2022-11-20T05:58:40;4.20;99.90
32097;DHT22;18610;49.916;8.284;2022-11-20T06:01:09;4.20;99.90
32097;DHT22;18610;49.916;8.284;2022-11-20T06:03:38;4.20;99.90
32097;DHT22;18610;49.916;8.284;2022-11-20T06:06:06;4.20;99.90
32097;DHT22;18610;49.916;8.284;2022-11-20T06:08:33;4.30;99.90
32097;DHT22;18610;49.916;8.284;2022-11-20T06:11:03;4.30;99.90
32097;DHT22;18610;49.916;8.284;2022-11-20T06:13:30;4.40;99.90
32097;DHT22;18610;49.916;8.284;2022-11-20T06:15:57;4.30;99.90
32097;DHT22;18610;49.916;8.284;2022-11-20T06:18:26;4.30;99.90
32097;DHT22;18610;49.916;8.284;2022-11-20T06:21:01;4.30;99.90
32097;DHT22;18610;49.916;8.284;2022-11-20T06:23:29;4.20;99.90
32097;DHT22;18610;49.916;8.284;2022-11-20T06:25:56;4.20;99.90
32097;DHT22;18610;49.916;8.284;2022-11-20T06:28:23;4.20;99.90
32097;DHT22;18610;49.916;8.284;2022-11-20T06:30:50;4.20;99.90
32097;DHT22;18610;49.916;8.284;2022-11-20T06:33:16;4.20;99.90
32097;DHT22;18610;49.916;8.284;2022-11-20T06:35:43;4.30;99.90
32097;DHT22;18610;49.916;8.284;2022-11-20T06:38:12;4.30;99.90
32097;DHT22;18610;49.916;8.284;2022-11-20T06:40:40;4.30;99.90
32097;DHT22;18610;49.916;8.284;2022-11-20T06:43:07;4.30;99.90
32097;DHT22;18610;49.916;8.284;2022-11-20T06:45:34;4.30;99.90
32097;DHT22;18610;49.916;8.284;2022-11-20T06:48:01;4.40;99.90
32097;DHT22;18610;49.916;8.284;2022-11-20T06:50:28;4.40;99.90
32097;DHT22;18610;49.916;8.284;2022-11-20T06:52:55;4.40;99.90
32097;DHT22;18610;49.916;8.284;2022-11-20T06:55:23;4.40;99.90
32097;DHT22;18610;49.916;8.284;2022-11-20T06:57:50;4.40;99.90
32097;DHT22;18610;49.916;8.284;2022-11-20T07:00:18;4.40;99.90
32097;DHT22;18610;49.916;8.284;2022-11-20T07:02:44;4.40;99.90
32097;DHT22;18610;49.916;8.284;2022-11-20T07:05:11;4.40;99.90
32097;DHT22;18610;49.916;8.284;2022-11-20T07:07:38;4.40;99.90
32097;DHT22;18610;49.916;8.284;2022-11-20T07:10:06;4.40;99.90
32097;DHT22;18610;49.916;8.284;2022-11-20T07:12:34;4.40;99.90
32097;DHT22;18610;49.916;8.284;2022-11-20T07:15:01;4.40;99.90
32097;DHT22;18610;49.916;8.284;2022-11-20T07:17:28;4.30;99.90
32097;DHT22;18610;49.916;8.284;2022-11-20T07:19:54;4.30;99.90
32097;DHT22;18610;49.916;8.284;2022-11-20T07:22:21;4.30;99.90
32097;DHT22;18610;49.916;8.284;2022-11-20T07:24:48;4.30;99.90
32097;DHT22;18610;49.916;8.284;2022-11-20T07:27:15;4.30;99.90
32097;DHT22;18610;49.916;8.284;2022-11-20T07:29:43;4.30;99.90
32097;DHT22;18610;49.916;8.284;2022-11-20T07:32:10;4.30;99.90
32097;DHT22;18610;49.916;8.284;2022-11-20T07:34:37;4.30;99.90
32097;DHT22;18610;49.916;8.284;2022-11-20T07:37:04;4.30;99.90
32097;DHT22;18610;49.916;8.284;2022-11-20T07:39:30;4.30;99.90
32097;DHT22;18610;49.916;8.284;2022-11-20T07:41:57;4.30;99.90
32097;DHT22;18610;49.916;8.284;2022-11-20T07:44:24;4.20;99.90
32097;DHT22;18610;49.916;8.284;2022-11-20T07:46:52;4.20;99.90
32097;DHT22;18610;49.916;8.284;2022-11-20T07:49:19;4.20;99.90
32097;DHT22;18610;49.916;8.284;2022-11-20T07:51:46;4.20;99.90
32097;DHT22;18610;49.916;8.284;2022-11-20T07:54:13;4.30;99.90
32097;DHT22;18610;49.916;8.284;2022-11-20T07:56:40;4.30;99.90
32097;DHT22;18610;49.916;8.284;2022-11-20T07:59:06;4.40;99.90
32097;DHT22;18610;49.916;8.284;2022-11-20T08:01:33;4.40;99.90
32097;DHT22;18610;49.916;8.284;2022-11-20T08:04:02;4.40;99.90
32097;DHT22;18610;49.916;8.284;2022-11-20T08:06:28;4.40;99.90
32097;DHT22;18610;49.916;8.284;2022-11-20T08:08:55;4.40;99.90
32097;DHT22;18610;49.916;8.284;2022-11-20T08:11:22;4.50;99.90
32097;DHT22;18610;49.916;8.284;2022-11-20T08:14:07;4.50;99.90
32097;DHT22;18610;49.916;8.284;2022-11-20T08:16:40;4.60;99.90
32097;DHT22;18610;49.916;8.284;2022-11-20T08:19:08;4.60;99.90
32097;DHT22;18610;49.916;8.284;2022-11-20T08:21:35;4.50;99.90
32097;DHT22;18610;49.916;8.284;2022-11-20T08:24:02;4.60;99.90
32097;DHT22;18610;49.916;8.284;2022-11-20T08:26:29;4.60;99.90
32097;DHT22;18610;49.916;8.284;2022-11-20T08:28:56;4.60;99.90
32097;DHT22;18610;49.916;8.284;2022-11-20T08:31:25;4.60;99.90
32097;DHT22;18610;49.916;8.284;2022-11-20T08:33:52;4.70;99.90
32097;DHT22;18610;49.916;8.284;2022-11-20T08:36:22;4.70;99.90
32097;DHT22;18610;49.916;8.284;2022-11-20T08:38:50;4.80;99.90
32097;DHT22;18610;49.916;8.284;2022-11-20T08:41:17;4.80;99.90
32097;DHT22;18610;49.916;8.284;2022-11-20T08:43:53;4.90;99.90
32097;DHT22;18610;49.916;8.284;2022-11-20T08:46:20;4.90;99.90
32097;DHT22;18610;49.916;8.284;2022-11-20T08:48:47;4.90;99.90
32097;DHT22;18610;49.916;8.284;2022-11-20T08:51:14;5.00;99.90
32097;DHT22;18610;49.916;8.284;2022-11-20T08:53:43;5.00;99.90
32097;DHT22;18610;49.916;8.284;2022-11-20T08:56:10;5.00;99.90
32097;DHT22;18610;49.916;8.284;2022-11-20T08:58:37;4.90;99.90
32097;DHT22;18610;49.916;8.284;2022-11-20T09:01:04;4.80;99.90
32097;DHT22;18610;49.916;8.284;2022-11-20T09:03:31;4.70;99.90
32097;DHT22;18610;49.916;8.284;2022-11-20T09:05:59;4.70;99.90
32097;DHT22;18610;49.916;8.284;2022-11-20T09:08:27;4.70;99.90
32097;DHT22;18610;49.916;8.284;2022-11-20T09:10:56;4.70;99.90
32097;DHT22;18610;49.916;8.284;2022-11-20T09:13:24;4.70;99.90
32097;DHT22;18610;49.916;8.284;2022-11-20T09:15:53;4.70;99.90
32097;DHT22;18610;49.916;8.284;2022-11-20T09:18:20;4.70;99.90
32097;DHT22;18610;49.916;8.284;2022-11-20T09:20:47;4.80;99.90
32097;DHT22;18610;49.916;8.284;2022-11-20T09:23:14;4.80;99.90
32097;DHT22;18610;49.916;8.284;2022-11-20T09:25:42;4.80;99.90
32097;DHT22;18610;49.916;8.284;2022-11-20T09:28:10;4.80;99.90
32097;DHT22;18610;49.916;8.284;2022-11-20T09:30:37;4.80;99.90
32097;DHT22;18610;49.916;8.284;2022-11-20T09:33:04;4.80;99.90
32097;DHT22;18610;49.916;8.284;2022-11-20T09:35:32;4.80;99.90
32097;DHT22;18610;49.916;8.284;2022-11-20T09:38:04;4.90;99.90
32097;DHT22;18610;49.916;8.284;2022-11-20T09:40:32;4.90;99.90
32097;DHT22;18610;49.916;8.284;2022-11-20T09:43:04;5.00;99.90
32097;DHT22;18610;49.916;8.284;2022-11-20T09:45:50;5.10;99.90
32097;DHT22;18610;49.916;8.284;2022-11-20T09:48:31;5.10;99.90
32097;DHT22;18610;49.916;8.284;2022-11-20T09:51:06;5.10;99.90
32097;DHT22;18610;49.916;8.284;2022-11-20T09:53:45;5.10;99.90
32097;DHT22;18610;49.916;8.284;2022-11-20T09:56:14;5.10;99.90
32097;DHT22;18610;49.916;8.284;2022-11-20T09:58:43;5.00;99.90
32097;DHT22;18610;49.916;8.284;2022-11-20T10:01:16;4.90;99.90
32097;DHT22;18610;49.916;8.284;2022-11-20T10:03:52;4.90;99.90
32097;DHT22;18610;49.916;8.284;2022-11-20T10:06:26;4.90;99.90
32097;DHT22;18610;49.916;8.284;2022-11-20T10:09:05;4.90;99.90
32097;DHT22;18610;49.916;8.284;2022-11-20T10:11:39;4.90;99.90
32097;DHT22;18610;49.916;8.284;2022-11-20T10:14:16;4.90;99.90
32097;DHT22;18610;49.916;8.284;2022-11-20T10:16:53;4.90;99.90
32097;DHT22;18610;49.916;8.284;2022-11-20T10:19:35;4.90;99.90
32097;DHT22;18610;49.916;8.284;2022-11-20T10:22:13;5.00;99.90
32097;DHT22;18610;49.916;8.284;2022-11-20T10:24:52;4.90;99.90
32097;DHT22;18610;49.916;8.284;2022-11-20T10:27:37;4.90;99.90
32097;DHT22;18610;49.916;8.284;2022-11-20T10:30:09;4.90;99.90
32097;DHT22;18610;49.916;8.284;2022-11-20T10:32:40;4.90;99.90
32097;DHT22;18610;49.916;8.284;2022-11-20T10:35:18;4.90;99.90
32097;DHT22;18610;49.916;8.284;2022-11-20T10:37:50;4.80;99.90
32097;DHT22;18610;49.916;8.284;2022-11-20T10:40:23;4.80;99.90
32097;DHT22;18610;49.916;8.284;2022-11-20T10:42:56;4.80;99.90
32097;DHT22;18610;49.916;8.284;2022-11-20T10:45:38;4.90;99.90
32097;DHT22;18610;49.916;8.284;2022-11-20T10:48:15;4.90;99.90
32097;DHT22;18610;49.916;8.284;2022-11-20T10:50:58;4.90;99.90
32097;DHT22;18610;49.916;8.284;2022-11-20T10:53:40;5.00;99.90
32097;DHT22;18610;49.916;8.284;2022-11-20T10:56:16;5.10;99.90
32097;DHT22;18610;49.916;8.284;2022-11-20T10:58:49;5.30;99.90
32097;DHT22;18610;49.916;8.284;2022-11-20T11:01:20;5.40;99.90
32097;DHT22;18610;49.916;8.284;2022-11-20T11:03:50;5.40;99.90
32097;DHT22;18610;49.916;8.284;2022-11-20T11:06:24;5.50;99.90
32097;DHT22;18610;49.916;8.284;2022-11-20T11:08:58;5.50;99.90
32097;DHT22;18610;49.916;8.284;2022-11-20T11:11:28;5.60;99.90
32097;DHT22;18610;49.916;8.284;2022-11-20T11:14:05;5.60;99.90
32097;DHT22;18610;49.916;8.284;2022-11-20T11:16:32;5.60;99.90
32097;DHT22;18610;49.916;8.284;2022-11-20T11:19:12;5.60;99.90
32097;DHT22;18610;49.916;8.284;2022-11-20T11:21:46;5.50;99.90
32097;DHT22;18610;49.916;8.284;2022-11-20T11:24:20;5.50;99.90
32097;DHT22;18610;49.916;8.284;2022-11-20T11:26:53;5.50;99.90
32097;DHT22;18610;49.916;8.284;2022-11-20T11:29:21;5.50;99.90
32097;DHT22;18610;49.916;8.284;2022-11-20T11:31:49;5.50;99.90
32097;DHT22;18610;49.916;8.284;2022-11-20T11:34:17;5.60;99.90
32097;DHT22;18610;49.916;8.284;2022-11-20T11:36:52;5.60;99.90
32097;DHT22;18610;49.916;8.284;2022-11-20T11:39:22;5.50;99.90
32097;DHT22;18610;49.916;8.284;2022-11-20T11:41:50;5.50;99.90
32097;DHT22;18610;49.916;8.284;2022-11-20T11:44:20;5.60;99.90
32097;DHT22;18610;49.916;8.284;2022-11-20T11:47:10;5.60;99.90
32097;DHT22;18610;49.916;8.284;2022-11-20T11:49:39;5.70;99.90
32097;DHT22;18610;49.916;8.284;2022-11-20T11:52:12;5.80;99.90
32097;DHT22;18610;49.916;8.284;2022-11-20T11:54:45;5.80;99.90
32097;DHT22;18610;49.916;8.284;2022-11-20T11:57:17;5.80;99.90
32097;DHT22;18610;49.916;8.284;2022-11-20T11:59:59;5.80;99.90
32097;DHT22;18610;49.916;8.284;2022-11-20T12:02:34;5.80;99.90
32097;DHT22;18610;49.916;8.284;2022-11-20T12:05:10;5.80;99.90
32097;DHT22;18610;49.916;8.284;2022-11-20T12:07:41;5.70;99.90
32097;DHT22;18610;49.916;8.284;2022-11-20T12:10:19;5.80;99.90
32097;DHT22;18610;49.916;8.284;2022-11-20T12:12:51;5.80;99.90
32097;DHT22;18610;49.916;8.284;2022-11-20T12:15:26;5.90;99.90
32097;DHT22;18610;49.916;8.284;2022-11-20T12:17:55;6.00;99.90
32097;DHT22;18610;49.916;8.284;2022-11-20T12:20:27;6.00;99.90
32097;DHT22;18610;49.916;8.284;2022-11-20T12:23:00;6.10;99.90
32097;DHT22;18610;49.916;8.284;2022-11-20T12:25:30;6.20;99.90
32097;DHT22;18610;49.916;8.284;2022-11-20T12:31:07;6.40;99.90
32097;DHT22;18610;49.916;8.284;2022-11-20T12:33:47;6.40;99.90
32097;DHT22;18610;49.916;8.284;2022-11-20T12:36:29;6.50;99.90
32097;DHT22;18610;49.916;8.284;2022-11-20T12:39:12;6.50;99.90
32097;DHT22;18610;49.916;8.284;2022-11-20T12:41:51;6.50;99.90
32097;DHT22;18610;49.916;8.284;2022-11-20T12:45:09;6.40;99.90
32097;DHT22;18610;49.916;8.284;2022-11-20T12:50:39;6.40;99.90
32097;DHT22;18610;49.916;8.284;2022-11-20T12:53:25;6.40;99.90
32097;DHT22;18610;49.916;8.284;2022-11-20T12:55:58;6.40;99.90
32097;DHT22;18610;49.916;8.284;2022-11-20T12:58:31;6.40;99.90
32097;DHT22;18610;49.916;8.284;2022-11-20T13:01:09;6.50;99.90
32097;DHT22;18610;49.916;8.284;2022-11-20T13:04:05;6.60;99.90
32097;DHT22;18610;49.916;8.284;2022-11-20T13:06:34;6.60;99.90
32097;DHT22;18610;49.916;8.284;2022-11-20T13:09:04;6.60;99.90
32097;DHT22;18610;49.916;8.284;2022-11-20T13:11:40;6.60;99.90
32097;DHT22;18610;49.916;8.284;2022-11-20T13:14:14;6.70;99.90
32097;DHT22;18610;49.916;8.284;2022-11-20T13:16:50;6.70;99.90
32097;DHT22;18610;49.916;8.284;2022-11-20T13:19:19;6.80;99.90
32097;DHT22;18610;49.916;8.284;2022-11-20T13:21:47;6.80;99.90
32097;DHT22;18610;49.916;8.284;2022-11-20T13:24:24;6.90;99.90
32097;DHT22;18610;49.916;8.284;2022-11-20T13:27:04;6.90;99.90
32097;DHT22;18610;49.916;8.284;2022-11-20T13:29:32;7.00;99.90
32097;DHT22;18610;49.916;8.284;2022-11-20T13:32:05;7.20;99.90
32097;DHT22;18610;49.916;8.284;2022-11-20T13:34:33;7.30;99.90
32097;DHT22;18610;49.916;8.284;2022-11-20T13:37:01;7.40;99.90
32097;DHT22;18610;49.916;8.284;2022-11-20T13:39:32;7.50;99.90
32097;DHT22;18610;49.916;8.284;2022-11-20T13:42:00;7.60;99.90
32097;DHT22;18610;49.916;8.284;2022-11-20T13:44:33;7.70;99.90
32097;DHT22;18610;49.916;8.284;2022-11-20T13:47:04;7.70;99.90
32097;DHT22;18610;49.916;8.284;2022-11-20T13:49:42;7.80;99.90
32097;DHT22;18610;49.916;8.284;2022-11-20T13:52:30;7.80;99.90
32097;DHT22;18610;49.916;8.284;2022-11-20T13:55:16;7.80;99.90
32097;DHT22;18610;49.916;8.284;2022-11-20T13:58:13;7.90;99.90
32097;DHT22;18610;49.916;8.284;2022-11-20T14:00:50;8.00;99.90
32097;DHT22;18610;49.916;8.284;2022-11-20T14:03:20;8.10;99.90
32097;DHT22;18610;49.916;8.284;2022-11-20T14:05:51;8.10;99.90
32097;DHT22;18610;49.916;8.284;2022-11-20T14:08:27;8.20;99.90
32097;DHT22;18610;49.916;8.284;2022-11-20T14:11:15;8.30;99.90
32097;DHT22;18610;49.916;8.284;2022-11-20T14:13:54;8.30;99.90
32097;DHT22;18610;49.916;8.284;2022-11-20T14:16:22;8.30;99.90
32097;DHT22;18610;49.916;8.284;2022-11-20T14:18:49;8.30;99.90
32097;DHT22;18610;49.916;8.284;2022-11-20T14:21:22;8.30;99.90
32097;DHT22;18610;49.916;8.284;2022-11-20T14:23:52;8.30;99.90
32097;DHT22;18610;49.916;8.284;2022-11-20T14:26:20;8.20;99.90
32097;DHT22;18610;49.916;8.284;2022-11-20T14:28:49;8.20;99.90
32097;DHT22;18610;49.916;8.284;2022-11-20T14:31:21;8.20;99.90
32097;DHT22;18610;49.916;8.284;2022-11-20T14:33:49;8.20;99.90
32097;DHT22;18610;49.916;8.284;2022-11-20T14:36:18;8.20;99.90
32097;DHT22;18610;49.916;8.284;2022-11-20T14:38:45;8.10;99.90
32097;DHT22;18610;49.916;8.284;2022-11-20T14:41:17;8.10;99.90
32097;DHT22;18610;49.916;8.284;2022-11-20T14:43:47;8.00;99.90
32097;DHT22;18610;49.916;8.284;2022-11-20T14:46:16;7.90;99.90
32097;DHT22;18610;49.916;8.284;2022-11-20T14:48:46;7.90;99.90
32097;DHT22;18610;49.916;8.284;2022-11-20T14:51:28;7.80;99.90
32097;DHT22;18610;49.916;8.284;2022-11-20T14:53:56;7.80;99.90
32097;DHT22;18610;49.916;8.284;2022-11-20T14:56:24;7.70;99.90
32097;DHT22;18610;49.916;8.284;2022-11-20T14:58:58;7.70;99.90
32097;DHT22;18610;49.916;8.284;2022-11-20T15:01:26;7.60;99.90
32097;DHT22;18610;49.916;8.284;2022-11-20T15:04:00;7.50;99.90
32097;DHT22;18610;49.916;8.284;2022-11-20T15:06:27;7.50;99.90
32097;DHT22;18610;49.916;8.284;2022-11-20T15:08:55;7.50;99.90
32097;DHT22;18610;49.916;8.284;2022-11-20T15:11:27;7.40;99.90
32097;DHT22;18610;49.916;8.284;2022-11-20T15:13:57;7.40;99.90
32097;DHT22;18610;49.916;8.284;2022-11-20T15:16:24;7.30;99.90
32097;DHT22;18610;49.916;8.284;2022-11-20T15:18:53;7.30;99.90
32097;DHT22;18610;49.916;8.284;2022-11-20T15:21:21;7.20;99.90
32097;DHT22;18610;49.916;8.284;2022-11-20T15:23:49;7.20;99.90
32097;DHT22;18610;49.916;8.284;2022-11-20T15:26:19;7.10;99.90
32097;DHT22;18610;49.916;8.284;2022-11-20T15:28:48;7.10;99.90
32097;DHT22;18610;49.916;8.284;2022-11-20T15:31:19;7.10;99.90
32097;DHT22;18610;49.916;8.284;2022-11-20T15:33:46;7.10;99.90
32097;DHT22;18610;49.916;8.284;2022-11-20T15:36:13;7.00;99.90
32097;DHT22;18610;49.916;8.284;2022-11-20T15:38:40;7.00;99.90
32097;DHT22;18610;49.916;8.284;2022-11-20T15:41:07;7.10;99.90
32097;DHT22;18610;49.916;8.284;2022-11-20T15:43:35;7.10;99.90
32097;DHT22;18610;49.916;8.284;2022-11-20T15:46:04;7.00;99.90
32097;DHT22;18610;49.916;8.284;2022-11-20T15:48:36;7.00;99.90
32097;DHT22;18610;49.916;8.284;2022-11-20T15:51:11;7.00;99.90
32097;DHT22;18610;49.916;8.284;2022-11-20T15:53:41;6.90;99.90
32097;DHT22;18610;49.916;8.284;2022-11-20T15:56:11;6.90;99.90
32097;DHT22;18610;49.916;8.284;2022-11-20T15:58:39;6.90;99.90
32097;DHT22;18610;49.916;8.284;2022-11-20T16:01:08;6.90;99.90
32097;DHT22;18610;49.916;8.284;2022-11-20T16:03:37;6.80;99.90
32097;DHT22;18610;49.916;8.284;2022-11-20T16:06:04;6.80;99.90
32097;DHT22;18610;49.916;8.284;2022-11-20T16:08:31;6.80;99.90